KNJK/NJK METAR and TAF weather

Enter ICAO airport designator
Station Type Date Time Source
KNJK METAR 2018/12/15 03:56 UTC NOAA

KNJK 150356Z AUTO 03005KT 10SM CLR 12/07 A3017 RMK AO2 SLP233 T01220072 $


Station Type Date Time Source
KNJK Decoded METAR 2018/12/15 03:56 UTC NOAA

El Centro, Naval Air Facility, CA, United States (KNJK) 32-49-30N 115-39-38W -13M
Dec 14, 2018 - 10:56 PM EST / 2018.12.15 0356 UTC
Wind: from the NNE (030 degrees) at 6 MPH (5 KT):0
Visibility: 10 mile(s):0
Sky conditions: clear
Temperature: 54.0 F (12.2 C)
Dew Point: 45.0 F (7.2 C)
Relative Humidity: 71%
Pressure (altimeter): 30.17 in. Hg (1021 hPa)
ob: KNJK 150356Z AUTO 03005KT 10SM CLR 12/07 A3017 RMK AO2 SLP233 T01220072
cycle: 4

Station Type Date Time Source
KNJK TAF 2018/12/14 23:52 UTC NOAA

TAF KNJK 1423/1523 VRB06KT 9999 BKN200 QNH3015INS
TEMPO 1423/1502 05006KT
FM150200 VRB06KT 9999 BKN120 BKN200 QNH3009INS
FM151700 VRB06KT 9999 FEW130 FEW250 QNH3005INS T07/1513Z T20/1522Z FS30130


Example: see airport list